Time;durP1;ratioP1;P1;durP2;ratioP2;P2;SDS_P1;SDS_P2;PMS_P1;PMS_P2;Temp;Humidity;BMP_temperature;BMP_pressure;BME280_temperature;BME280_humidity;BME280_pressure;Samples;Min_cycle;Max_cycle;Signal;HPM_P1;HPM_P2
2023/03/20 00:01:10;;;;;;;12.80;8.40;;;;;;;8.54;67.09;95176.63;5034505;28;20435;-82
2023/03/20 00:03:37;;;;;;;8.67;7.60;;;;;;;8.54;67.73;95185.31;5034498;28;20455;-82
2023/03/20 00:06:04;;;;;;;12.03;9.00;;;;;;;8.37;68.69;95181.28;5016168;28;20457;-83
2023/03/20 00:08:31;;;;;;;12.17;8.23;;;;;;;8.23;68.25;95170.94;4999731;28;20445;-82
2023/03/20 00:10:59;;;;;;;9.20;7.57;;;;;;;8.13;68.70;95182.19;5034683;28;20891;-83
2023/03/20 00:13:27;;;;;;;7.90;7.10;;;;;;;8.06;68.97;95164.28;5033990;28;20506;-82
2023/03/20 00:15:54;;;;;;;9.50;6.43;;;;;;;8.08;69.18;95167.63;5034239;28;20474;-82
2023/03/20 00:18:24;;;;;;;9.20;7.20;;;;;;;8.09;70.07;95173.69;5033577;28;20531;-83
2023/03/20 00:20:52;;;;;;;8.30;7.07;;;;;;;8.18;70.37;95167.00;5034311;28;20475;-82
2023/03/20 00:23:20;;;;;;;10.33;7.73;;;;;;;8.13;69.83;95162.09;5034559;28;20914;-84
2023/03/20 00:25:47;;;;;;;11.63;7.40;;;;;;;8.16;69.60;95153.22;5033898;28;20538;-83
2023/03/20 00:28:36;;;;;;;12.33;7.40;;;;;;;8.14;69.41;95155.09;5033425;28;20821;-83
2023/03/20 00:31:03;;;;;;;9.47;7.90;;;;;;;8.11;68.70;95157.94;5033821;28;21186;-82
2023/03/20 00:33:30;;;;;;;13.30;8.80;;;;;;;8.13;69.10;95153.44;5033849;28;20486;-82
2023/03/20 00:35:58;;;;;;;9.80;7.70;;;;;;;8.15;69.33;95148.94;5034225;28;20514;-83
2023/03/20 00:38:25;;;;;;;9.10;7.37;;;;;;;8.14;69.40;95144.63;5034348;28;20519;-82
2023/03/20 00:40:52;;;;;;;11.90;7.83;;;;;;;8.12;69.02;95144.75;5034198;28;20452;-82
2023/03/20 00:43:18;;;;;;;18.20;8.03;;;;;;;8.09;69.17;95142.31;5034457;28;20522;-82
2023/03/20 00:45:47;;;;;;;10.23;7.60;;;;;;;8.03;69.72;95138.38;5033780;28;20455;-84
2023/03/20 00:48:15;;;;;;;8.43;6.67;;;;;;;8.05;69.27;95140.88;5033665;28;20971;-83
2023/03/20 00:50:42;;;;;;;10.60;6.90;;;;;;;7.90;68.90;95147.19;5033767;28;20862;-82
2023/03/20 00:53:11;;;;;;;11.83;7.80;;;;;;;7.92;69.75;95146.16;5033991;28;20542;-82
2023/03/20 00:55:39;;;;;;;12.40;7.47;;;;;;;7.93;69.57;95150.44;5034028;28;20455;-83
2023/03/20 00:58:06;;;;;;;9.43;5.93;;;;;;;7.89;69.31;95143.75;5015824;28;20436;-82
2023/03/20 01:00:39;;;;;;;8.97;6.47;;;;;;;7.95;69.18;95151.16;5033876;28;20431;-82
2023/03/20 01:03:15;;;;;;;9.40;6.57;;;;;;;8.00;69.26;95143.81;5033338;28;20443;-83
2023/03/20 01:05:42;;;;;;;8.47;6.50;;;;;;;8.08;69.03;95144.09;5033583;28;20474;-82
2023/03/20 01:08:13;;;;;;;6.50;5.90;;;;;;;8.08;68.87;95133.66;5033997;28;20443;-83
2023/03/20 01:10:41;;;;;;;9.63;6.57;;;;;;;8.12;69.24;95133.47;5033973;28;20546;-82
2023/03/20 01:13:17;;;;;;;10.50;7.80;;;;;;;8.08;68.18;95124.97;5033604;28;20490;-81
2023/03/20 01:15:44;;;;;;;9.80;6.40;;;;;;;8.15;68.83;95134.06;5033471;28;20447;-82
2023/03/20 01:18:15;;;;;;;10.43;7.03;;;;;;;8.17;68.46;95139.19;5033815;28;20440;-82
2023/03/20 01:20:42;;;;;;;7.90;6.50;;;;;;;8.13;68.54;95140.34;5033250;28;20487;-82
2023/03/20 01:23:10;;;;;;;9.23;6.43;;;;;;;8.12;67.71;95136.06;5033711;28;20452;-83
2023/03/20 01:25:38;;;;;;;9.63;6.27;;;;;;;8.10;68.01;95130.13;5033594;28;20439;-83
2023/03/20 01:28:13;;;;;;;8.97;6.10;;;;;;;8.04;67.53;95131.38;5033307;28;20460;-83
2023/03/20 01:30:40;;;;;;;8.60;6.60;;;;;;;8.03;67.74;95141.00;5033588;28;20432;-81
2023/03/20 01:33:15;;;;;;;11.93;7.17;;;;;;;7.98;67.81;95140.47;5032400;28;20514;-83
2023/03/20 01:35:42;;;;;;;10.00;6.90;;;;;;;7.94;68.04;95146.03;5032451;28;20472;-82
2023/03/20 01:38:13;;;;;;;10.27;7.40;;;;;;;7.74;68.04;95134.38;5033276;28;20438;-84
2023/03/20 01:40:47;;;;;;;18.10;10.23;;;;;;;7.56;68.89;95135.66;5036317;28;20936;-83
2023/03/20 01:43:17;;;;;;;16.50;10.30;;;;;;;7.61;68.42;95138.78;5037190;28;20440;-83
2023/03/20 01:45:52;;;;;;;11.70;8.37;;;;;;;7.58;68.79;95141.59;5037157;28;20445;-81
2023/03/20 01:48:23;;;;;;;9.97;7.57;;;;;;;7.59;68.88;95145.88;5037421;28;20418;-80
2023/03/20 01:50:50;;;;;;;10.80;7.63;;;;;;;7.53;68.92;95143.72;5002618;28;20447;-83
2023/03/20 01:53:20;;;;;;;14.20;8.73;;;;;;;7.25;69.50;95142.97;5036960;28;20482;-84
2023/03/20 01:55:52;;;;;;;12.17;7.90;;;;;;;7.36;69.53;95148.28;5037566;28;20948;-83
2023/03/20 01:58:24;;;;;;;10.30;7.20;;;;;;;7.41;69.79;95154.03;5037014;28;20476;-83
2023/03/20 02:00:51;;;;;;;9.97;8.00;;;;;;;7.40;69.62;95152.38;5036835;28;20457;-84
2023/03/20 02:03:21;;;;;;;8.97;6.63;;;;;;;7.38;69.96;95148.19;5036907;28;20435;-82
2023/03/20 02:05:49;;;;;;;9.33;7.20;;;;;;;7.33;70.34;95147.66;5002086;28;20505;-82
2023/03/20 02:08:25;;;;;;;9.00;7.60;;;;;;;7.26;69.99;95147.25;5036637;28;20945;-84
2023/03/20 02:10:53;;;;;;;9.70;7.13;;;;;;;7.15;70.71;95141.91;5036426;28;20462;-82
2023/03/20 02:13:21;;;;;;;9.77;6.23;;;;;;;7.09;70.77;95139.72;5036227;28;20488;-82
2023/03/20 02:16:01;;;;;;;9.63;6.60;;;;;;;7.05;71.25;95138.25;5036765;28;20447;-82
2023/03/20 02:18:30;;;;;;;9.77;7.30;;;;;;;6.93;71.71;95136.44;5036611;28;20457;-82
2023/03/20 02:21:39;;;;;;;11.03;7.70;;;;;;;6.99;72.76;95138.66;5017661;28;20457;-82
2023/03/20 02:24:37;;;;;;;13.17;6.97;;;;;;;7.00;72.34;95137.72;5036114;28;20450;-82
2023/03/20 02:27:15;;;;;;;10.80;7.40;;;;;;;7.02;72.12;95146.28;5036187;28;20454;-82
2023/03/20 02:30:15;;;;;;;12.93;7.23;;;;;;;7.05;71.66;95146.91;5036105;28;20449;-82
2023/03/20 02:33:26;;;;;;;7.10;6.37;;;;;;;7.08;71.59;95145.88;5036027;28;20511;-82
2023/03/20 02:36:34;;;;;;;9.33;6.70;;;;;;;7.17;70.94;95142.63;4917452;29;20487;-82
2023/03/20 02:39:30;;;;;;;7.70;6.90;;;;;;;7.21;70.82;95146.72;4861238;29;20843;-82
2023/03/20 02:42:04;;;;;;;8.43;6.63;;;;;;;7.24;70.72;95143.91;4824302;29;20457;-84
2023/03/20 02:44:38;;;;;;;15.63;6.50;;;;;;;7.29;70.21;95143.59;4824399;29;20820;-82
2023/03/20 02:47:11;;;;;;;7.90;6.90;;;;;;;7.37;69.68;95149.97;4824246;29;20478;-83
2023/03/20 02:49:52;;;;;;;9.93;6.87;;;;;;;7.35;70.25;95143.19;4794138;29;20937;-82
2023/03/20 02:52:25;;;;;;;8.90;6.60;;;;;;;7.24;70.66;95136.09;4780926;29;20498;-82
2023/03/20 02:55:06;;;;;;;7.27;6.53;;;;;;;7.21;71.31;95141.50;4779501;29;20460;-83
2023/03/20 02:57:44;;;;;;;9.13;6.00;;;;;;;7.06;71.29;95132.09;4824450;29;20548;-82
2023/03/20 03:00:15;;;;;;;8.73;7.03;;;;;;;6.97;72.06;95127.50;4824212;29;20452;-82
2023/03/20 03:02:49;;;;;;;9.23;6.73;;;;;;;6.89;72.97;95121.94;4823818;29;20457;-83
2023/03/20 03:05:21;;;;;;;8.23;5.73;;;;;;;6.79;72.67;95124.34;4823940;29;20525;-82
2023/03/20 03:07:52;;;;;;;8.07;7.23;;;;;;;6.77;73.59;95116.63;4824212;29;20821;-82
2023/03/20 03:10:26;;;;;;;8.27;5.93;;;;;;;6.71;73.11;95118.81;4846341;29;20511;-82
2023/03/20 03:12:56;;;;;;;12.10;7.20;;;;;;;6.61;73.51;95123.75;4914688;29;20489;-82
2023/03/20 03:15:29;;;;;;;10.03;6.07;;;;;;;6.59;74.00;95123.03;4958088;28;20855;-82
2023/03/20 03:17:59;;;;;;;9.43;6.73;;;;;;;6.65;74.82;95122.66;4982904;28;20455;-82
2023/03/20 03:20:32;;;;;;;8.67;6.20;;;;;;;6.72;74.47;95121.31;5017242;28;20938;-82
2023/03/20 03:22:59;;;;;;;6.97;6.27;;;;;;;6.70;73.27;95123.19;5035481;28;20449;-82
2023/03/20 03:25:30;;;;;;;7.00;5.83;;;;;;;6.63;73.84;95113.22;5034312;28;20453;-82
2023/03/20 03:28:02;;;;;;;7.10;5.93;;;;;;;6.66;74.10;95113.06;5034692;28;20449;-82
2023/03/20 03:30:33;;;;;;;8.40;5.77;;;;;;;6.69;74.24;95113.69;5034670;28;20450;-82
2023/03/20 03:33:12;;;;;;;9.03;6.07;;;;;;;6.71;73.73;95117.03;5035046;28;20482;-82
2023/03/20 03:35:40;;;;;;;9.80;6.30;;;;;;;6.66;73.39;95124.31;5015855;28;20470;-83
2023/03/20 03:38:20;;;;;;;9.80;7.20;;;;;;;6.65;72.96;95121.78;5035382;28;20446;-82
2023/03/20 03:40:56;;;;;;;10.50;6.50;;;;;;;6.66;72.78;95116.50;5035021;28;20435;-82
2023/03/20 03:43:31;;;;;;;7.53;6.73;;;;;;;6.62;73.42;95124.59;5035419;28;20435;-82
2023/03/20 03:46:01;;;;;;;11.17;7.30;;;;;;;6.53;73.45;95120.84;5035026;28;20431;-82
2023/03/20 03:48:33;;;;;;;9.13;6.50;;;;;;;6.58;73.65;95126.56;5035567;28;20442;-82
2023/03/20 03:51:04;;;;;;;9.73;6.60;;;;;;;6.58;72.80;95123.13;5034511;28;20505;-85
2023/03/20 03:53:34;;;;;;;6.77;5.90;;;;;;;6.69;73.36;95125.88;5034584;28;20486;-82
2023/03/20 03:56:06;;;;;;;7.20;5.87;;;;;;;6.71;72.57;95137.88;5034655;28;20786;-83
2023/03/20 03:58:37;;;;;;;9.27;6.37;;;;;;;6.68;73.25;95132.88;5034669;28;20478;-82
2023/03/20 04:01:06;;;;;;;8.43;6.80;;;;;;;6.69;73.24;95136.31;5034567;28;20427;-81
2023/03/20 04:03:38;;;;;;;6.87;6.17;;;;;;;6.72;73.71;95133.50;5033905;28;20435;-82
2023/03/20 04:06:06;;;;;;;10.17;6.67;;;;;;;6.72;73.87;95126.53;5034349;28;20518;-83
2023/03/20 04:08:34;;;;;;;9.13;6.20;;;;;;;6.71;73.49;95126.63;5034107;28;20446;-85
2023/03/20 04:11:02;;;;;;;11.20;6.93;;;;;;;6.69;73.08;95113.69;4998968;28;20438;-84
2023/03/20 04:13:29;;;;;;;9.50;7.10;;;;;;;6.74;72.42;95116.00;5034039;28;20482;-83
2023/03/20 04:15:56;;;;;;;10.23;7.30;;;;;;;6.79;72.86;95119.97;5034541;28;20454;-84
2023/03/20 04:18:23;;;;;;;8.83;6.77;;;;;;;6.73;72.91;95111.72;5034140;28;20810;-85
2023/03/20 04:20:50;;;;;;;9.77;6.90;;;;;;;6.77;73.11;95114.00;5034587;28;20445;-85
2023/03/20 04:23:17;;;;;;;7.80;6.47;;;;;;;6.75;72.53;95115.06;5036146;28;20430;-83
2023/03/20 04:32:29;;;;;;;7.10;6.10;;;;;;;6.68;72.12;95114.63;5033013;28;20785;-82
2023/03/20 04:35:05;;;;;;;8.37;7.00;;;;;;;6.57;72.70;95113.63;5111619;27;20512;-81
2023/03/20 04:37:32;;;;;;;9.13;6.83;;;;;;;6.42;72.86;95115.50;5058976;28;20436;-82
2023/03/20 04:39:59;;;;;;;10.57;7.27;;;;;;;6.46;72.88;95111.75;5111532;28;20496;-82
2023/03/20 04:42:25;;;;;;;9.77;7.60;;;;;;;6.50;72.90;95108.00;5092268;28;20517;-81
2023/03/20 04:44:52;;;;;;;14.00;7.43;;;;;;;6.62;72.87;95106.34;5109102;28;20461;-83
2023/03/20 04:47:19;;;;;;;8.80;7.60;;;;;;;6.76;71.68;95117.56;5111780;28;20430;-83
2023/03/20 04:53:09;;;;;;;10.67;7.43;;;;;;;7.08;69.88;95114.56;5111242;28;20458;-83
2023/03/20 04:55:36;;;;;;;30.83;18.60;;;;;;;7.26;70.03;95126.38;5110902;28;20435;-83
2023/03/20 04:58:02;;;;;;;30.90;18.73;;;;;;;7.36;70.23;95119.56;5111182;28;20512;-83
2023/03/20 05:00:29;;;;;;;55.47;31.47;;;;;;;7.45;70.29;95134.59;5111347;28;20503;-82
2023/03/20 05:02:56;;;;;;;39.43;25.40;;;;;;;7.60;70.46;95139.72;5110709;28;20428;-82
2023/03/20 05:05:23;;;;;;;38.80;22.20;;;;;;;7.79;70.45;95142.72;5111068;28;20436;-81
2023/03/20 05:07:50;;;;;;;42.47;22.70;;;;;;;7.93;69.08;95145.22;5110800;28;20501;-82
2023/03/20 05:10:19;;;;;;;31.43;19.77;;;;;;;8.12;68.49;95149.97;5111167;28;20428;-81
2023/03/20 05:12:47;;;;;;;27.60;17.50;;;;;;;8.14;68.13;95142.88;5110423;28;20931;-83
2023/03/20 05:15:14;;;;;;;28.90;17.27;;;;;;;8.23;68.19;95162.28;5110670;28;21027;-82
2023/03/20 05:17:41;;;;;;;26.67;17.53;;;;;;;8.33;68.23;95152.81;5109945;28;20847;-81
2023/03/20 05:20:08;;;;;;;28.83;17.17;;;;;;;8.47;67.96;95155.31;5110050;28;20505;-83
2023/03/20 05:22:35;;;;;;;26.77;18.10;;;;;;;8.53;67.50;95154.03;5074971;28;20497;-83
2023/03/20 05:25:02;;;;;;;27.03;16.43;;;;;;;8.59;67.50;95157.03;5110566;28;20428;-83
2023/03/20 05:27:30;;;;;;;25.60;15.10;;;;;;;8.56;67.42;95152.03;5091639;28;20459;-82
2023/03/20 05:29:57;;;;;;;29.97;16.70;;;;;;;8.12;67.99;95157.81;5110510;28;20432;-83
2023/03/20 05:32:24;;;;;;;25.57;15.30;;;;;;;8.23;67.64;95160.50;5110303;28;20429;-83
2023/03/20 05:34:51;;;;;;;25.80;16.33;;;;;;;8.38;68.18;95162.06;5110462;28;20954;-81
2023/03/20 05:37:17;;;;;;;23.90;15.17;;;;;;;8.50;68.09;95160.31;5091242;28;20444;-83
2023/03/20 05:39:46;;;;;;;32.57;17.07;;;;;;;8.59;67.81;95170.13;5074565;28;20492;-81
2023/03/20 05:42:13;;;;;;;32.97;16.20;;;;;;;8.80;69.42;95162.50;5110062;28;20427;-84
2023/03/20 05:44:41;;;;;;;33.37;15.40;;;;;;;9.03;69.57;95158.19;5106598;28;20434;-78
2023/03/20 05:47:08;;;;;;;18.83;11.53;;;;;;;9.38;69.70;95158.16;5096639;28;20426;-81
2023/03/20 05:49:37;;;;;;;14.63;9.17;;;;;;;9.74;67.68;95157.09;5096602;28;20817;-81
2023/03/20 05:52:04;;;;;;;8.87;7.13;;;;;;;9.99;67.87;95160.44;5096530;28;20843;-81
2023/03/20 05:54:30;;;;;;;14.20;7.60;;;;;;;10.21;64.79;95156.06;5096258;28;20536;-80
2023/03/20 05:56:57;;;;;;;10.40;6.60;;;;;;;10.52;62.08;95157.06;5095407;28;20464;-80
2023/03/20 05:59:24;;;;;;;7.83;6.97;;;;;;;10.75;62.44;95165.72;5096420;28;20432;-83
2023/03/20 06:01:52;;;;;;;8.80;7.57;;;;;;;11.05;61.08;95165.00;5096511;28;20458;-81
2023/03/20 06:04:19;;;;;;;12.53;8.03;;;;;;;11.24;59.06;95176.59;5096608;28;20809;-81
2023/03/20 06:06:46;;;;;;;16.57;6.83;;;;;;;11.37;59.27;95159.72;5096166;28;20505;-82
2023/03/20 06:09:13;;;;;;;13.20;6.00;;;;;;;11.45;56.91;95161.69;5096298;28;20451;-83
2023/03/20 06:11:39;;;;;;;11.07;7.03;;;;;;;11.32;57.07;95158.44;5096201;28;20444;-82
2023/03/20 06:14:06;;;;;;;10.37;7.07;;;;;;;11.28;56.57;95159.66;5096341;28;20541;-81
2023/03/20 06:16:33;;;;;;;18.67;11.83;;;;;;;11.17;56.87;95153.47;5085466;28;20523;-80
2023/03/20 06:19:02;;;;;;;22.57;12.90;;;;;;;11.33;57.18;95160.94;5075775;28;20440;-81
2023/03/20 06:21:28;;;;;;;15.77;9.80;;;;;;;11.49;57.15;95147.31;5076189;28;20830;-81
2023/03/20 06:23:56;;;;;;;9.73;8.03;;;;;;;11.80;66.93;95156.09;5083200;28;20439;-83
2023/03/20 06:26:23;;;;;;;13.80;8.97;;;;;;;11.99;57.27;95160.63;5095984;28;20440;-81
2023/03/20 06:28:50;;;;;;;10.60;8.20;;;;;;;12.21;57.69;95165.72;5089645;28;20444;-82
2023/03/20 06:31:17;;;;;;;8.07;6.83;;;;;;;12.38;55.07;95178.22;5075132;28;20453;-81
2023/03/20 06:33:44;;;;;;;8.90;7.17;;;;;;;12.43;54.08;95163.81;5091441;28;20838;-82
2023/03/20 06:36:12;;;;;;;16.00;9.93;;;;;;;12.66;53.94;95166.09;5076833;28;20449;-82
2023/03/20 06:38:39;;;;;;;20.57;12.67;;;;;;;12.90;54.39;95162.25;5078458;28;20931;-82
2023/03/20 06:41:12;;;;;;;18.80;13.87;;;;;;;13.11;53.80;95159.50;5074792;28;20943;-81
2023/03/20 06:43:43;;;;;;;26.23;14.37;;;;;;;13.26;53.02;95158.94;5094207;28;20736;-82
2023/03/20 06:46:09;;;;;;;21.10;14.40;;;;;;;13.21;53.28;95163.81;5094267;28;20531;-82
2023/03/20 06:48:37;;;;;;;28.43;16.97;;;;;;;13.25;53.72;95156.44;5093707;28;20502;-82
2023/03/20 06:51:04;;;;;;;23.47;14.27;;;;;;;13.34;53.88;95163.53;5093780;28;20544;-81
2023/03/20 06:53:32;;;;;;;26.50;14.33;;;;;;;13.51;53.14;95167.25;5058384;28;20444;-82
2023/03/20 06:55:59;;;;;;;19.93;13.20;;;;;;;13.53;51.87;95166.13;5093344;28;20810;-82
2023/03/20 06:58:26;;;;;;;25.23;14.73;;;;;;;13.56;52.30;95155.28;5093370;28;20515;-83
2023/03/20 07:00:53;;;;;;;25.20;15.50;;;;;;;13.55;51.50;95161.53;5093493;28;20451;-81
2023/03/20 07:03:20;;;;;;;26.30;15.90;;;;;;;13.12;52.52;95146.19;5093379;28;20853;-82
2023/03/20 07:05:47;;;;;;;21.23;15.20;;;;;;;13.29;53.74;95142.03;5093436;28;20502;-82
2023/03/20 07:08:20;;;;;;;18.30;12.97;;;;;;;13.43;52.77;95144.22;5093612;28;20445;-81
2023/03/20 07:10:48;;;;;;;21.03;12.73;;;;;;;13.67;51.21;95148.22;5059536;28;20481;-82
2023/03/20 07:13:20;;;;;;;19.67;12.10;;;;;;;13.84;50.58;95145.66;5074144;28;20424;-82
2023/03/20 07:15:47;;;;;;;23.13;12.57;;;;;;;14.00;50.64;95147.69;5093163;28;20576;-83
2023/03/20 07:18:14;;;;;;;20.47;13.73;;;;;;;14.27;50.49;95153.00;5093620;28;20446;-83
2023/03/20 07:20:42;;;;;;;24.93;14.50;;;;;;;14.60;49.17;95145.50;5093161;28;21058;-83
2023/03/20 07:23:12;;;;;;;39.33;15.50;;;;;;;14.82;48.83;95149.53;5093353;28;20856;-82
2023/03/20 07:25:42;;;;;;;21.07;14.50;;;;;;;15.11;49.33;95144.03;5092871;28;20938;-82
2023/03/20 07:28:10;;;;;;;30.17;15.23;;;;;;;15.33;47.48;95138.28;5092987;28;20449;-82
2023/03/20 07:30:37;;;;;;;23.33;16.10;;;;;;;15.17;47.67;95132.84;5092917;28;20847;-82
2023/03/20 07:33:05;;;;;;;23.63;14.13;;;;;;;15.20;47.59;95132.53;5093115;28;20484;-81
2023/03/20 07:35:31;;;;;;;23.40;15.30;;;;;;;15.35;49.29;95135.50;5093202;28;20483;-80
2023/03/20 07:37:58;;;;;;;26.47;16.10;;;;;;;15.46;47.60;95137.88;5057174;28;20443;-77
2023/03/20 07:40:25;;;;;;;23.70;15.60;;;;;;;15.43;47.42;95123.16;5073764;28;20493;-82
2023/03/20 07:42:52;;;;;;;28.10;14.37;;;;;;;15.38;48.23;95130.72;5093242;28;20522;-82
2023/03/20 07:45:21;;;;;;;24.57;14.40;;;;;;;14.99;47.18;95137.28;5093156;28;20444;-81
2023/03/20 07:47:47;;;;;;;24.40;12.80;;;;;;;14.64;47.53;95133.66;5056951;28;20538;-82
2023/03/20 07:50:15;;;;;;;18.00;14.20;;;;;;;14.46;47.99;95124.88;5092686;28;20447;-82
2023/03/20 07:52:46;;;;;;;18.23;12.23;;;;;;;14.43;48.80;95133.91;5093013;28;20509;-82
2023/03/20 07:55:13;;;;;;;22.33;12.73;;;;;;;14.41;48.68;95130.56;5093104;28;20481;-82
2023/03/20 07:57:40;;;;;;;20.13;13.47;;;;;;;14.42;48.94;95126.09;5092758;28;20451;-82
2023/03/20 08:00:08;;;;;;;23.17;13.13;;;;;;;14.43;49.31;95130.44;5092983;28;20451;-82
2023/03/20 08:02:36;;;;;;;28.80;14.23;;;;;;;14.44;48.88;95135.56;5093191;28;20432;-82
2023/03/20 08:05:04;;;;;;;22.73;13.13;;;;;;;14.40;49.66;95134.16;5092953;28;20503;-83
2023/03/20 08:07:31;;;;;;;25.40;15.37;;;;;;;14.48;49.40;95130.84;5092709;28;20450;-81
2023/03/20 08:10:01;;;;;;;27.83;16.57;;;;;;;14.50;50.00;95144.72;5073434;28;20434;-81
2023/03/20 08:12:28;;;;;;;27.50;14.47;;;;;;;14.49;49.96;95133.34;5092688;28;20443;-82
2023/03/20 08:14:54;;;;;;;19.77;13.97;;;;;;;14.64;49.39;95135.47;5092724;28;20981;-82
2023/03/20 08:17:21;;;;;;;26.03;13.70;;;;;;;14.54;50.22;95136.34;5092614;28;20443;-82
2023/03/20 08:19:49;;;;;;;26.50;18.27;;;;;;;14.40;50.46;95138.63;5092439;28;20448;-82
2023/03/20 08:22:17;;;;;;;30.63;18.63;;;;;;;14.59;50.88;95141.19;5092574;28;20450;-81
2023/03/20 08:24:43;;;;;;;28.50;16.80;;;;;;;14.84;51.16;95145.75;5092250;28;20469;-82
2023/03/20 08:27:10;;;;;;;17.97;16.03;;;;;;;15.04;50.00;95149.09;5092291;28;20446;-82
2023/03/20 08:29:37;;;;;;;30.50;18.40;;;;;;;14.99;49.48;95150.50;5092300;28;20444;-82
2023/03/20 08:32:04;;;;;;;23.87;16.70;;;;;;;15.14;49.36;95143.72;5092507;28;20449;-82
2023/03/20 08:34:41;;;;;;;30.97;20.53;;;;;;;15.18;49.39;95151.19;5056163;28;20493;-82
2023/03/20 08:37:11;;;;;;;27.97;17.07;;;;;;;15.26;49.01;95147.78;5092167;28;20436;-82
2023/03/20 08:39:38;;;;;;;29.13;18.67;;;;;;;15.38;49.75;95146.59;5092289;28;20459;-81
2023/03/20 08:42:05;;;;;;;36.40;21.17;;;;;;;15.48;50.30;95149.97;5092153;28;20449;-81
2023/03/20 08:44:32;;;;;;;27.10;21.00;;;;;;;15.62;48.93;95143.34;5094437;28;20459;-81
2023/03/20 08:46:59;;;;;;;28.80;19.63;;;;;;;15.74;48.65;95141.25;5092124;28;20440;-82
2023/03/20 08:49:26;;;;;;;31.17;20.30;;;;;;;15.55;48.17;95136.13;5091960;28;20448;-82
2023/03/20 08:51:53;;;;;;;21.60;17.47;;;;;;;15.66;48.12;95128.81;5091894;28;20942;-82
2023/03/20 08:54:21;;;;;;;23.27;19.10;;;;;;;15.84;48.20;95131.38;5091804;28;20485;-82
2023/03/20 08:56:48;;;;;;;31.40;20.70;;;;;;;16.18;48.21;95125.28;5072869;28;20449;-82
2023/03/20 08:59:15;;;;;;;28.07;17.80;;;;;;;16.34;47.00;95122.72;5092148;28;20449;-81
2023/03/20 09:01:42;;;;;;;24.07;17.17;;;;;;;16.49;46.43;95123.78;5091993;28;20448;-81
2023/03/20 09:04:09;;;;;;;22.43;14.83;;;;;;;16.52;45.18;95120.81;5091750;28;20461;-80
2023/03/20 09:06:37;;;;;;;27.80;17.13;;;;;;;16.62;45.57;95118.84;5091718;28;20454;-82
2023/03/20 09:09:04;;;;;;;72.33;39.17;;;;;;;16.55;46.05;95114.34;5092002;28;20440;-81
2023/03/20 09:11:41;;;;;;;36.43;20.10;;;;;;;16.58;47.26;95112.22;5091663;28;20441;-81
2023/03/20 09:14:14;;;;;;;87.63;51.87;;;;;;;16.70;46.01;95113.59;5055641;28;20488;-82
2023/03/20 09:16:41;;;;;;;27.00;19.87;;;;;;;16.60;45.79;95112.88;5091625;28;20433;-82
2023/03/20 09:19:10;;;;;;;27.43;16.53;;;;;;;16.57;45.18;95117.66;5091715;28;20813;-82
2023/03/20 09:21:37;;;;;;;24.33;16.43;;;;;;;16.44;46.16;95115.44;5095113;28;20444;-82
2023/03/20 09:24:04;;;;;;;32.90;19.73;;;;;;;16.58;46.38;95108.72;5095566;28;20430;-82
2023/03/20 09:26:36;;;;;;;18.73;13.83;;;;;;;16.60;45.79;95104.09;5059956;28;20434;-83
2023/03/20 09:29:02;;;;;;;23.40;15.47;;;;;;;16.54;45.68;95097.63;5095410;28;20450;-81
2023/03/20 09:31:33;;;;;;;21.80;15.00;;;;;;;16.58;45.69;95098.13;5095218;28;20472;-83
2023/03/20 09:34:00;;;;;;;21.77;14.13;;;;;;;16.71;45.68;95098.50;5095400;28;20486;-83
2023/03/20 09:36:26;;;;;;;22.23;13.83;;;;;;;16.59;45.72;95095.31;5095278;28;20535;-83
2023/03/20 09:38:56;;;;;;;22.53;14.40;;;;;;;16.74;45.58;95090.22;5095239;28;20445;-82
2023/03/20 09:41:25;;;;;;;18.63;13.20;;;;;;;16.80;45.09;95086.13;5095026;28;20449;-83
2023/03/20 09:44:08;;;;;;;19.40;12.03;;;;;;;16.96;45.64;95091.44;5095034;28;20485;-83
2023/03/20 09:47:07;;;;;;;19.17;13.57;;;;;;;17.08;44.81;95068.94;5094909;28;20454;-83
2023/03/20 09:49:43;;;;;;;18.90;12.23;;;;;;;17.16;44.24;95065.44;5052074;28;20445;-82
2023/03/20 09:52:21;;;;;;;17.43;11.80;;;;;;;17.18;44.40;95055.50;5052190;28;20450;-82
2023/03/20 09:54:53;;;;;;;15.83;11.60;;;;;;;16.59;44.54;95065.34;5052371;28;20480;-82
2023/03/20 09:57:25;;;;;;;15.63;10.40;;;;;;;16.76;45.18;95052.97;5052288;28;20440;-82
2023/03/20 09:59:57;;;;;;;16.00;11.00;;;;;;;16.90;44.28;95047.03;5052181;28;20435;-82
2023/03/20 10:02:35;;;;;;;22.37;11.80;;;;;;;16.86;44.96;95037.75;5052196;28;20441;-81
2023/03/20 10:05:04;;;;;;;30.57;16.70;;;;;;;16.82;44.96;95041.72;5052263;28;20454;-81
2023/03/20 10:07:31;;;;;;;19.80;12.03;;;;;;;16.77;44.53;95028.97;5051913;28;20472;-82
2023/03/20 10:09:58;;;;;;;13.53;9.67;;;;;;;16.64;44.47;95024.13;5052084;28;20512;-82
2023/03/20 10:12:41;;;;;;;18.03;10.43;;;;;;;16.62;45.32;95023.44;5052169;28;20452;-81
2023/03/20 10:15:18;;;;;;;13.27;10.93;;;;;;;16.78;44.52;95012.09;5051803;28;20483;-82
2023/03/20 10:17:53;;;;;;;12.60;9.70;;;;;;;16.93;42.45;95005.13;5051956;28;20778;-82
2023/03/20 10:20:29;;;;;;;13.30;9.40;;;;;;;16.77;42.57;95010.44;5051917;28;20726;-82
2023/03/20 10:23:04;;;;;;;25.47;13.97;;;;;;;16.72;42.31;95002.13;5051875;28;20453;-83
2023/03/20 10:25:33;;;;;;;26.80;14.20;;;;;;;16.78;43.73;94998.84;5052868;28;20449;-81
2023/03/20 10:28:03;;;;;;;19.37;11.37;;;;;;;16.81;42.67;94990.56;5094510;28;20503;-82
2023/03/20 10:30:49;;;;;;;15.57;9.50;;;;;;;17.00;43.81;94995.50;5094386;28;20804;-82
2023/03/20 10:33:29;;;;;;;15.57;10.20;;;;;;;17.06;43.26;94998.47;5061975;28;20479;-82
2023/03/20 10:36:09;;;;;;;15.33;11.23;;;;;;;16.88;43.29;94993.34;5094104;28;20500;-82
2023/03/20 10:38:49;;;;;;;16.93;9.73;;;;;;;17.09;43.37;94980.44;5094484;28;20540;-82
2023/03/20 10:41:19;;;;;;;18.00;10.90;;;;;;;17.33;42.48;94979.53;5094482;28;20494;-83
2023/03/20 10:43:51;;;;;;;26.73;13.17;;;;;;;17.25;42.28;94969.78;5094256;28;20831;-83
2023/03/20 10:46:27;;;;;;;14.53;11.30;;;;;;;17.41;43.35;94973.41;5093823;28;20452;-82
2023/03/20 10:49:01;;;;;;;14.97;9.87;;;;;;;17.40;42.78;94961.16;5093785;28;20435;-82
2023/03/20 10:51:38;;;;;;;19.43;11.93;;;;;;;17.34;41.75;94965.28;5093979;28;20453;-83
2023/03/20 10:54:14;;;;;;;19.00;10.83;;;;;;;17.42;41.76;94959.97;5094077;28;20448;-82
2023/03/20 10:56:44;;;;;;;42.33;20.87;;;;;;;17.51;43.14;94966.06;5093383;28;20482;-82
2023/03/20 10:59:22;;;;;;;13.37;9.83;;;;;;;17.55;40.80;94960.25;5094010;28;20537;-83
2023/03/20 11:01:50;;;;;;;14.43;9.00;;;;;;;17.40;41.76;94955.84;5093775;28;20784;-83
2023/03/20 11:04:17;;;;;;;15.57;10.67;;;;;;;17.45;41.84;94948.19;5093702;28;20448;-83
2023/03/20 11:06:52;;;;;;;18.73;10.80;;;;;;;17.56;41.71;94951.28;5093604;28;20668;-82
2023/03/20 11:09:25;;;;;;;16.50;10.50;;;;;;;17.72;41.57;94944.31;5093548;28;20956;-82
2023/03/20 11:11:56;;;;;;;15.17;9.60;;;;;;;17.84;41.76;94938.44;5093262;28;20441;-83
2023/03/20 11:14:25;;;;;;;17.80;9.77;;;;;;;18.02;41.07;94934.72;5093511;28;20490;-82
2023/03/20 11:17:04;;;;;;;15.80;9.47;;;;;;;17.87;39.80;94926.63;5093164;28;20517;-83
2023/03/20 11:19:36;;;;;;;22.87;11.00;;;;;;;17.93;40.08;94921.50;5093157;28;20529;-82
2023/03/20 11:22:08;;;;;;;17.93;11.23;;;;;;;17.94;39.95;94907.22;5093207;28;20860;-83
2023/03/20 11:24:43;;;;;;;17.33;9.70;;;;;;;18.17;38.67;94920.50;5093454;28;20475;-82
2023/03/20 11:27:12;;;;;;;16.10;10.43;;;;;;;18.24;37.57;94921.47;5074580;28;20522;-82
2023/03/20 11:29:40;;;;;;;20.90;10.70;;;;;;;18.33;38.14;94908.94;5093274;28;20780;-82
2023/03/20 11:32:28;;;;;;;14.63;9.87;;;;;;;18.34;38.61;94907.94;5092954;28;20934;-83
2023/03/20 11:34:56;;;;;;;21.77;10.97;;;;;;;18.35;36.22;94904.28;5092578;28;20476;-82
2023/03/20 11:37:27;;;;;;;20.73;10.77;;;;;;;18.45;37.88;94898.72;5093147;28;20454;-82
2023/03/20 11:39:59;;;;;;;22.50;10.73;;;;;;;18.50;37.64;94889.22;5092974;28;20810;-82
2023/03/20 11:42:27;;;;;;;18.40;11.53;;;;;;;18.56;37.09;94885.84;5092519;28;20460;-83
2023/03/20 11:45:05;;;;;;;20.97;10.87;;;;;;;18.66;36.29;94896.25;5092896;28;20452;-82
2023/03/20 11:47:35;;;;;;;25.37;11.43;;;;;;;18.76;41.27;94888.84;5093099;28;20455;-82
2023/03/20 11:50:04;;;;;;;23.03;13.27;;;;;;;18.92;38.48;94881.75;5092923;28;20449;-82
2023/03/20 11:52:35;;;;;;;22.03;11.60;;;;;;;19.00;37.02;94877.16;5092932;28;20437;-82